Terminal Aerodrome Forecast
Issued by NWS

Home | Current Version | Previous Version | Graphics & Text | Print | Product List | Glossary On
Versions: 1 2 3 4 5 6 7 8 9 10 11 12 13 14 15 16 17 18 19 20 21 22 23 24
507
FTUS43 KLOT 161742
TAFDPA
TAF
KDPA 161742Z 1618/1718 23009KT P6SM FEW250
     FM162300 09005KT P6SM SCT200
     FM170900 11005KT 5SM BR SCT007 BKN200
     FM171700 17008KT P6SM OVC150=

USA.gov is the U.S. government's official web portal to all federal, state and local government web resources and services.